sensor_id;sensor_type;location;lat;lon;timestamp;temperature;humidity
12438;DHT22;6283;51.330;12.374;2022-11-20T00:00:26;-1.60;1.00
12438;DHT22;6283;51.330;12.374;2022-11-20T00:02:52;-1.70;1.00
12438;DHT22;6283;51.330;12.374;2022-11-20T00:05:17;-1.70;1.00
12438;DHT22;6283;51.330;12.374;2022-11-20T00:07:43;-1.90;1.00
12438;DHT22;6283;51.330;12.374;2022-11-20T00:10:09;-2.00;1.00
12438;DHT22;6283;51.330;12.374;2022-11-20T00:12:35;-1.80;1.00
12438;DHT22;6283;51.330;12.374;2022-11-20T00:15:00;-1.80;1.00
12438;DHT22;6283;51.330;12.374;2022-11-20T00:17:26;-1.90;1.00
12438;DHT22;6283;51.330;12.374;2022-11-20T00:19:52;-2.10;1.00
12438;DHT22;6283;51.330;12.374;2022-11-20T00:22:17;-1.90;1.00
12438;DHT22;6283;51.330;12.374;2022-11-20T00:24:43;-2.00;1.00
12438;DHT22;6283;51.330;12.374;2022-11-20T00:27:08;-1.80;1.00
12438;DHT22;6283;51.330;12.374;2022-11-20T00:29:34;-1.90;1.00
12438;DHT22;6283;51.330;12.374;2022-11-20T00:32:00;-2.00;1.00
12438;DHT22;6283;51.330;12.374;2022-11-20T00:34:25;-1.80;1.00
12438;DHT22;6283;51.330;12.374;2022-11-20T00:36:51;-2.00;1.00
12438;DHT22;6283;51.330;12.374;2022-11-20T00:39:16;-1.90;1.00
12438;DHT22;6283;51.330;12.374;2022-11-20T00:41:42;-2.10;1.00
12438;DHT22;6283;51.330;12.374;2022-11-20T00:44:07;-1.90;1.00
12438;DHT22;6283;51.330;12.374;2022-11-20T00:46:33;-2.10;1.00
12438;DHT22;6283;51.330;12.374;2022-11-20T00:48:59;-1.80;1.00
12438;DHT22;6283;51.330;12.374;2022-11-20T00:51:26;-1.70;1.00
12438;DHT22;6283;51.330;12.374;2022-11-20T00:53:57;-2.10;1.00
12438;DHT22;6283;51.330;12.374;2022-11-20T00:56:25;-1.90;1.00
12438;DHT22;6283;51.330;12.374;2022-11-20T00:58:50;-2.10;1.00
12438;DHT22;6283;51.330;12.374;2022-11-20T01:01:24;-1.70;1.00
12438;DHT22;6283;51.330;12.374;2022-11-20T01:03:51;-1.90;1.00
12438;DHT22;6283;51.330;12.374;2022-11-20T01:06:20;-1.90;1.00
12438;DHT22;6283;51.330;12.374;2022-11-20T01:08:46;-1.70;1.00
12438;DHT22;6283;51.330;12.374;2022-11-20T01:11:14;-1.90;1.00
12438;DHT22;6283;51.330;12.374;2022-11-20T01:13:41;-1.80;1.00
12438;DHT22;6283;51.330;12.374;2022-11-20T01:18:33;-1.80;1.00
12438;DHT22;6283;51.330;12.374;2022-11-20T01:21:10;-1.80;1.00
12438;DHT22;6283;51.330;12.374;2022-11-20T01:23:38;-2.00;1.00
12438;DHT22;6283;51.330;12.374;2022-11-20T01:26:06;-1.80;1.00
12438;DHT22;6283;51.330;12.374;2022-11-20T01:28:32;-1.80;1.00
12438;DHT22;6283;51.330;12.374;2022-11-20T01:30:59;-1.80;1.00
12438;DHT22;6283;51.330;12.374;2022-11-20T01:33:25;-1.70;1.00
12438;DHT22;6283;51.330;12.374;2022-11-20T01:35:51;-1.80;1.00
12438;DHT22;6283;51.330;12.374;2022-11-20T01:38:17;-2.00;1.00
12438;DHT22;6283;51.330;12.374;2022-11-20T01:40:43;-1.70;1.00
12438;DHT22;6283;51.330;12.374;2022-11-20T01:43:19;-1.90;1.00
12438;DHT22;6283;51.330;12.374;2022-11-20T01:48:23;-1.80;1.00
12438;DHT22;6283;51.330;12.374;2022-11-20T01:50:51;-1.80;1.00
12438;DHT22;6283;51.330;12.374;2022-11-20T01:53:20;-1.80;1.00
12438;DHT22;6283;51.330;12.374;2022-11-20T01:55:52;-1.70;1.00
12438;DHT22;6283;51.330;12.374;2022-11-20T01:58:21;-2.00;1.00
12438;DHT22;6283;51.330;12.374;2022-11-20T02:00:48;-2.10;1.00
12438;DHT22;6283;51.330;12.374;2022-11-20T02:03:16;-1.90;1.00
12438;DHT22;6283;51.330;12.374;2022-11-20T02:05:55;-2.10;1.00
12438;DHT22;6283;51.330;12.374;2022-11-20T02:08:21;-2.20;1.00
12438;DHT22;6283;51.330;12.374;2022-11-20T02:10:47;-2.20;1.00
12438;DHT22;6283;51.330;12.374;2022-11-20T02:13:13;-2.00;1.00
12438;DHT22;6283;51.330;12.374;2022-11-20T02:15:57;-1.90;1.00
12438;DHT22;6283;51.330;12.374;2022-11-20T02:18:23;-2.00;1.00
12438;DHT22;6283;51.330;12.374;2022-11-20T02:21:00;-2.10;1.00
12438;DHT22;6283;51.330;12.374;2022-11-20T02:23:33;-1.80;1.00
12438;DHT22;6283;51.330;12.374;2022-11-20T02:26:03;-1.90;1.00
12438;DHT22;6283;51.330;12.374;2022-11-20T02:28:31;-2.20;1.00
12438;DHT22;6283;51.330;12.374;2022-11-20T02:30:56;-2.10;1.00
12438;DHT22;6283;51.330;12.374;2022-11-20T02:33:22;-1.90;1.00
12438;DHT22;6283;51.330;12.374;2022-11-20T02:35:48;-2.00;1.00
12438;DHT22;6283;51.330;12.374;2022-11-20T02:38:14;-1.80;1.00
12438;DHT22;6283;51.330;12.374;2022-11-20T02:40:40;-2.20;1.00
12438;DHT22;6283;51.330;12.374;2022-11-20T02:43:06;-2.10;1.00
12438;DHT22;6283;51.330;12.374;2022-11-20T02:45:32;-1.70;1.00
12438;DHT22;6283;51.330;12.374;2022-11-20T02:47:57;-1.90;1.00
12438;DHT22;6283;51.330;12.374;2022-11-20T02:50:23;-2.10;1.00
12438;DHT22;6283;51.330;12.374;2022-11-20T02:52:48;-2.20;1.00
12438;DHT22;6283;51.330;12.374;2022-11-20T02:55:14;-2.10;1.00
12438;DHT22;6283;51.330;12.374;2022-11-20T02:57:40;-1.80;1.00
12438;DHT22;6283;51.330;12.374;2022-11-20T03:00:06;-1.80;1.00
12438;DHT22;6283;51.330;12.374;2022-11-20T03:02:32;-2.20;1.00
12438;DHT22;6283;51.330;12.374;2022-11-20T03:04:58;-2.20;1.00
12438;DHT22;6283;51.330;12.374;2022-11-20T03:07:24;-1.70;1.00
12438;DHT22;6283;51.330;12.374;2022-11-20T03:09:49;-2.00;1.00
12438;DHT22;6283;51.330;12.374;2022-11-20T03:12:15;-1.80;1.00
12438;DHT22;6283;51.330;12.374;2022-11-20T03:14:40;-2.20;1.00
12438;DHT22;6283;51.330;12.374;2022-11-20T03:17:06;-2.20;1.00
12438;DHT22;6283;51.330;12.374;2022-11-20T03:19:31;-2.20;1.00
12438;DHT22;6283;51.330;12.374;2022-11-20T03:21:57;-2.00;1.00
12438;DHT22;6283;51.330;12.374;2022-11-20T03:24:23;-2.00;1.00
12438;DHT22;6283;51.330;12.374;2022-11-20T03:26:48;-2.20;1.00
12438;DHT22;6283;51.330;12.374;2022-11-20T03:29:14;-2.00;1.00
12438;DHT22;6283;51.330;12.374;2022-11-20T03:31:40;-2.20;1.00
12438;DHT22;6283;51.330;12.374;2022-11-20T03:34:07;-2.20;1.00
12438;DHT22;6283;51.330;12.374;2022-11-20T03:36:33;-1.90;1.00
12438;DHT22;6283;51.330;12.374;2022-11-20T03:38:59;-2.10;1.00
12438;DHT22;6283;51.330;12.374;2022-11-20T03:41:29;-1.90;1.00
12438;DHT22;6283;51.330;12.374;2022-11-20T03:44:00;-2.20;1.00
12438;DHT22;6283;51.330;12.374;2022-11-20T03:46:27;-2.30;1.00
12438;DHT22;6283;51.330;12.374;2022-11-20T03:48:53;-2.30;1.00
12438;DHT22;6283;51.330;12.374;2022-11-20T03:51:20;-2.40;1.00
12438;DHT22;6283;51.330;12.374;2022-11-20T03:53:47;-2.40;1.00
12438;DHT22;6283;51.330;12.374;2022-11-20T03:56:15;-2.10;1.00
12438;DHT22;6283;51.330;12.374;2022-11-20T03:58:42;-2.40;1.00
12438;DHT22;6283;51.330;12.374;2022-11-20T04:01:11;-2.40;1.00
12438;DHT22;6283;51.330;12.374;2022-11-20T04:03:38;-2.40;1.00
12438;DHT22;6283;51.330;12.374;2022-11-20T04:06:06;-2.20;1.00
12438;DHT22;6283;51.330;12.374;2022-11-20T04:08:32;-2.20;1.00
12438;DHT22;6283;51.330;12.374;2022-11-20T04:11:17;-2.30;1.00
12438;DHT22;6283;51.330;12.374;2022-11-20T04:13:46;-2.60;1.00
12438;DHT22;6283;51.330;12.374;2022-11-20T04:16:12;-2.40;1.00
12438;DHT22;6283;51.330;12.374;2022-11-20T04:18:38;-2.20;1.00
12438;DHT22;6283;51.330;12.374;2022-11-20T04:21:05;-2.60;1.00
12438;DHT22;6283;51.330;12.374;2022-11-20T04:23:31;-2.60;1.00
12438;DHT22;6283;51.330;12.374;2022-11-20T04:26:11;-2.40;1.00
12438;DHT22;6283;51.330;12.374;2022-11-20T04:28:37;-2.60;1.00
12438;DHT22;6283;51.330;12.374;2022-11-20T04:33:34;-2.60;1.00
12438;DHT22;6283;51.330;12.374;2022-11-20T04:36:10;-2.40;1.00
12438;DHT22;6283;51.330;12.374;2022-11-20T04:38:36;-2.50;1.00
12438;DHT22;6283;51.330;12.374;2022-11-20T04:41:04;-2.70;1.00
12438;DHT22;6283;51.330;12.374;2022-11-20T04:43:30;-2.60;1.00
12438;DHT22;6283;51.330;12.374;2022-11-20T04:45:57;-2.80;1.00
12438;DHT22;6283;51.330;12.374;2022-11-20T04:48:23;-2.70;1.00
12438;DHT22;6283;51.330;12.374;2022-11-20T04:50:50;-2.70;1.00
12438;DHT22;6283;51.330;12.374;2022-11-20T04:53:15;-2.80;1.00
12438;DHT22;6283;51.330;12.374;2022-11-20T04:55:41;-2.80;1.00
12438;DHT22;6283;51.330;12.374;2022-11-20T04:58:07;-2.70;1.00
12438;DHT22;6283;51.330;12.374;2022-11-20T05:00:32;-2.80;1.00
12438;DHT22;6283;51.330;12.374;2022-11-20T05:02:58;-2.70;1.00
12438;DHT22;6283;51.330;12.374;2022-11-20T05:05:24;-2.80;1.00
12438;DHT22;6283;51.330;12.374;2022-11-20T05:07:49;-2.70;1.00
12438;DHT22;6283;51.330;12.374;2022-11-20T05:10:15;-2.80;1.00
12438;DHT22;6283;51.330;12.374;2022-11-20T05:12:41;-2.80;1.00
12438;DHT22;6283;51.330;12.374;2022-11-20T05:15:07;-2.60;1.00
12438;DHT22;6283;51.330;12.374;2022-11-20T05:17:32;-2.60;1.00
12438;DHT22;6283;51.330;12.374;2022-11-20T05:19:58;-2.60;1.00
12438;DHT22;6283;51.330;12.374;2022-11-20T05:22:24;-2.80;1.00
12438;DHT22;6283;51.330;12.374;2022-11-20T05:24:49;-2.70;1.00
12438;DHT22;6283;51.330;12.374;2022-11-20T05:27:15;-2.80;1.00
12438;DHT22;6283;51.330;12.374;2022-11-20T05:29:41;-2.70;1.00
12438;DHT22;6283;51.330;12.374;2022-11-20T05:32:06;-2.80;1.00
12438;DHT22;6283;51.330;12.374;2022-11-20T05:34:35;-2.70;1.00
12438;DHT22;6283;51.330;12.374;2022-11-20T05:37:00;-3.00;1.00
12438;DHT22;6283;51.330;12.374;2022-11-20T05:39:26;-2.60;1.00
12438;DHT22;6283;51.330;12.374;2022-11-20T05:41:51;-2.70;1.00
12438;DHT22;6283;51.330;12.374;2022-11-20T05:44:37;-2.70;1.00
12438;DHT22;6283;51.330;12.374;2022-11-20T05:47:03;-2.60;1.00
12438;DHT22;6283;51.330;12.374;2022-11-20T05:49:28;-2.70;1.00
12438;DHT22;6283;51.330;12.374;2022-11-20T05:51:54;-3.00;1.00
12438;DHT22;6283;51.330;12.374;2022-11-20T05:54:19;-2.70;1.00
12438;DHT22;6283;51.330;12.374;2022-11-20T05:56:45;-2.90;1.00
12438;DHT22;6283;51.330;12.374;2022-11-20T05:59:10;-2.90;1.00
12438;DHT22;6283;51.330;12.374;2022-11-20T06:01:36;-3.00;1.00
12438;DHT22;6283;51.330;12.374;2022-11-20T06:04:01;-2.70;1.00
12438;DHT22;6283;51.330;12.374;2022-11-20T06:06:27;-3.00;1.00
12438;DHT22;6283;51.330;12.374;2022-11-20T06:08:53;-3.00;1.00
12438;DHT22;6283;51.330;12.374;2022-11-20T06:11:19;-3.20;1.00
12438;DHT22;6283;51.330;12.374;2022-11-20T06:13:45;-3.10;1.00
12438;DHT22;6283;51.330;12.374;2022-11-20T06:16:14;-3.10;1.00
12438;DHT22;6283;51.330;12.374;2022-11-20T06:18:39;-3.10;1.00
12438;DHT22;6283;51.330;12.374;2022-11-20T06:21:12;-3.10;1.00
12438;DHT22;6283;51.330;12.374;2022-11-20T06:23:38;-3.10;1.00
12438;DHT22;6283;51.330;12.374;2022-11-20T06:26:06;-3.10;1.00
12438;DHT22;6283;51.330;12.374;2022-11-20T06:28:32;-3.10;1.00
12438;DHT22;6283;51.330;12.374;2022-11-20T06:30:58;-3.10;1.00
12438;DHT22;6283;51.330;12.374;2022-11-20T06:33:23;-3.10;1.00
12438;DHT22;6283;51.330;12.374;2022-11-20T06:35:49;-3.10;1.00
12438;DHT22;6283;51.330;12.374;2022-11-20T06:38:15;-3.10;1.00
12438;DHT22;6283;51.330;12.374;2022-11-20T06:40:41;-3.00;1.00
12438;DHT22;6283;51.330;12.374;2022-11-20T06:43:10;-2.90;1.00
12438;DHT22;6283;51.330;12.374;2022-11-20T06:45:36;-3.10;1.00
12438;DHT22;6283;51.330;12.374;2022-11-20T06:48:03;-2.90;1.00
12438;DHT22;6283;51.330;12.374;2022-11-20T06:50:29;-3.00;1.00
12438;DHT22;6283;51.330;12.374;2022-11-20T06:52:55;-2.80;1.00
12438;DHT22;6283;51.330;12.374;2022-11-20T06:55:20;-2.80;1.00
12438;DHT22;6283;51.330;12.374;2022-11-20T06:57:46;-3.00;1.00
12438;DHT22;6283;51.330;12.374;2022-11-20T07:00:12;-3.20;1.00
12438;DHT22;6283;51.330;12.374;2022-11-20T07:02:38;-2.90;1.00
12438;DHT22;6283;51.330;12.374;2022-11-20T07:05:04;-2.90;1.00
12438;DHT22;6283;51.330;12.374;2022-11-20T07:07:30;-2.90;1.00
12438;DHT22;6283;51.330;12.374;2022-11-20T07:09:55;-3.00;1.00
12438;DHT22;6283;51.330;12.374;2022-11-20T07:12:21;-3.00;1.00
12438;DHT22;6283;51.330;12.374;2022-11-20T07:14:46;-2.80;1.00
12438;DHT22;6283;51.330;12.374;2022-11-20T07:17:12;-2.90;1.00
12438;DHT22;6283;51.330;12.374;2022-11-20T07:19:38;-2.90;1.00
12438;DHT22;6283;51.330;12.374;2022-11-20T07:22:03;-2.90;1.00
12438;DHT22;6283;51.330;12.374;2022-11-20T07:24:29;-2.90;1.00
12438;DHT22;6283;51.330;12.374;2022-11-20T07:26:55;-2.90;1.00
12438;DHT22;6283;51.330;12.374;2022-11-20T07:29:20;-2.90;1.00
12438;DHT22;6283;51.330;12.374;2022-11-20T07:31:46;-3.00;1.00
12438;DHT22;6283;51.330;12.374;2022-11-20T07:34:11;-3.20;1.00
12438;DHT22;6283;51.330;12.374;2022-11-20T07:36:37;-3.10;1.00
12438;DHT22;6283;51.330;12.374;2022-11-20T07:39:03;-3.00;1.00
12438;DHT22;6283;51.330;12.374;2022-11-20T07:41:28;-3.00;1.00
12438;DHT22;6283;51.330;12.374;2022-11-20T07:43:54;-2.80;1.00
12438;DHT22;6283;51.330;12.374;2022-11-20T07:46:20;-2.80;1.00
12438;DHT22;6283;51.330;12.374;2022-11-20T07:48:45;-2.90;1.00
12438;DHT22;6283;51.330;12.374;2022-11-20T07:51:11;-3.00;1.00
12438;DHT22;6283;51.330;12.374;2022-11-20T07:53:36;-3.00;1.00
12438;DHT22;6283;51.330;12.374;2022-11-20T07:56:02;-3.00;1.00
12438;DHT22;6283;51.330;12.374;2022-11-20T07:58:31;-2.60;1.00
12438;DHT22;6283;51.330;12.374;2022-11-20T08:01:02;-2.80;1.00
12438;DHT22;6283;51.330;12.374;2022-11-20T08:03:28;-2.80;1.00
12438;DHT22;6283;51.330;12.374;2022-11-20T08:05:53;-2.70;1.00
12438;DHT22;6283;51.330;12.374;2022-11-20T08:08:19;-2.70;1.00
12438;DHT22;6283;51.330;12.374;2022-11-20T08:10:46;-2.80;1.00
12438;DHT22;6283;51.330;12.374;2022-11-20T08:13:12;-2.60;1.00
12438;DHT22;6283;51.330;12.374;2022-11-20T08:15:56;-2.80;1.00
12438;DHT22;6283;51.330;12.374;2022-11-20T08:18:21;-2.70;1.00
12438;DHT22;6283;51.330;12.374;2022-11-20T08:20:47;-2.80;1.00
12438;DHT22;6283;51.330;12.374;2022-11-20T08:23:12;-2.70;1.00
12438;DHT22;6283;51.330;12.374;2022-11-20T08:25:39;-2.90;1.00
12438;DHT22;6283;51.330;12.374;2022-11-20T08:28:06;-2.70;1.00
12438;DHT22;6283;51.330;12.374;2022-11-20T08:30:32;-2.70;1.00
12438;DHT22;6283;51.330;12.374;2022-11-20T08:33:06;-2.70;1.00
12438;DHT22;6283;51.330;12.374;2022-11-20T08:35:34;-2.80;1.00
12438;DHT22;6283;51.330;12.374;2022-11-20T08:38:04;-2.60;1.00
12438;DHT22;6283;51.330;12.374;2022-11-20T08:40:30;-2.70;1.00
12438;DHT22;6283;51.330;12.374;2022-11-20T08:42:56;-2.60;1.00
12438;DHT22;6283;51.330;12.374;2022-11-20T08:45:22;-2.60;1.00
12438;DHT22;6283;51.330;12.374;2022-11-20T08:47:47;-2.50;1.00
12438;DHT22;6283;51.330;12.374;2022-11-20T08:50:15;-2.50;1.00
12438;DHT22;6283;51.330;12.374;2022-11-20T08:52:41;-2.30;1.00
12438;DHT22;6283;51.330;12.374;2022-11-20T08:55:07;-2.20;1.00
12438;DHT22;6283;51.330;12.374;2022-11-20T08:57:37;-2.50;1.00
12438;DHT22;6283;51.330;12.374;2022-11-20T09:00:06;-2.50;1.00
12438;DHT22;6283;51.330;12.374;2022-11-20T09:02:32;-2.40;1.00
12438;DHT22;6283;51.330;12.374;2022-11-20T09:04:58;-2.30;1.00
12438;DHT22;6283;51.330;12.374;2022-11-20T09:07:24;-2.30;1.00
12438;DHT22;6283;51.330;12.374;2022-11-20T09:09:49;-2.10;1.00
12438;DHT22;6283;51.330;12.374;2022-11-20T09:12:15;-2.30;1.00
12438;DHT22;6283;51.330;12.374;2022-11-20T09:14:41;-2.00;1.00
12438;DHT22;6283;51.330;12.374;2022-11-20T09:17:06;-1.90;1.00
12438;DHT22;6283;51.330;12.374;2022-11-20T09:19:33;-1.90;1.00
12438;DHT22;6283;51.330;12.374;2022-11-20T09:21:59;-1.90;1.00
12438;DHT22;6283;51.330;12.374;2022-11-20T09:24:26;-1.80;1.00
12438;DHT22;6283;51.330;12.374;2022-11-20T09:26:51;-1.60;1.00
12438;DHT22;6283;51.330;12.374;2022-11-20T09:29:17;-1.60;1.00
12438;DHT22;6283;51.330;12.374;2022-11-20T09:31:42;-1.60;1.00
12438;DHT22;6283;51.330;12.374;2022-11-20T09:34:08;-1.50;1.00
12438;DHT22;6283;51.330;12.374;2022-11-20T09:36:35;-1.50;1.00
12438;DHT22;6283;51.330;12.374;2022-11-20T09:39:00;-1.60;1.00
12438;DHT22;6283;51.330;12.374;2022-11-20T09:44:33;-1.50;1.00
12438;DHT22;6283;51.330;12.374;2022-11-20T09:47:18;-1.40;1.00
12438;DHT22;6283;51.330;12.374;2022-11-20T09:50:14;-1.30;1.00
12438;DHT22;6283;51.330;12.374;2022-11-20T09:55:36;-1.10;1.00
12438;DHT22;6283;51.330;12.374;2022-11-20T09:58:05;-1.30;1.00
12438;DHT22;6283;51.330;12.374;2022-11-20T10:00:31;-1.10;1.00
12438;DHT22;6283;51.330;12.374;2022-11-20T10:03:02;-1.00;1.00
12438;DHT22;6283;51.330;12.374;2022-11-20T10:05:39;-0.80;1.00
12438;DHT22;6283;51.330;12.374;2022-11-20T10:08:29;-0.90;1.00
12438;DHT22;6283;51.330;12.374;2022-11-20T10:11:28;-0.70;1.00
12438;DHT22;6283;51.330;12.374;2022-11-20T10:17:02;-0.70;1.00
12438;DHT22;6283;51.330;12.374;2022-11-20T10:22:33;-0.60;1.00
12438;DHT22;6283;51.330;12.374;2022-11-20T10:30:18;-0.30;1.00
12438;DHT22;6283;51.330;12.374;2022-11-20T10:33:39;-0.50;1.00
12438;DHT22;6283;51.330;12.374;2022-11-20T10:38:20;0.00;1.00
12438;DHT22;6283;51.330;12.374;2022-11-20T10:40:53;-0.10;1.00
12438;DHT22;6283;51.330;12.374;2022-11-20T10:43:40;0.10;1.00
12438;DHT22;6283;51.330;12.374;2022-11-20T10:46:15;0.00;1.00
12438;DHT22;6283;51.330;12.374;2022-11-20T10:48:43;0.00;1.00
12438;DHT22;6283;51.330;12.374;2022-11-20T10:51:15;0.00;1.00
12438;DHT22;6283;51.330;12.374;2022-11-20T10:56:40;0.30;1.00
12438;DHT22;6283;51.330;12.374;2022-11-20T10:59:38;0.20;1.00
12438;DHT22;6283;51.330;12.374;2022-11-20T11:04:51;0.10;1.00
12438;DHT22;6283;51.330;12.374;2022-11-20T11:09:52;-0.10;1.00
12438;DHT22;6283;51.330;12.374;2022-11-20T11:12:19;-0.20;1.00
12438;DHT22;6283;51.330;12.374;2022-11-20T11:14:49;0.10;1.00
12438;DHT22;6283;51.330;12.374;2022-11-20T11:17:32;0.30;1.00
12438;DHT22;6283;51.330;12.374;2022-11-20T11:20:16;0.40;1.00
12438;DHT22;6283;51.330;12.374;2022-11-20T11:22:49;0.50;1.00
12438;DHT22;6283;51.330;12.374;2022-11-20T11:25:30;0.50;1.00
12438;DHT22;6283;51.330;12.374;2022-11-20T11:28:02;0.50;1.00
12438;DHT22;6283;51.330;12.374;2022-11-20T11:30:29;0.70;1.00
12438;DHT22;6283;51.330;12.374;2022-11-20T11:33:18;0.60;1.00
12438;DHT22;6283;51.330;12.374;2022-11-20T11:36:01;0.70;1.00
12438;DHT22;6283;51.330;12.374;2022-11-20T11:38:38;0.80;1.00
12438;DHT22;6283;51.330;12.374;2022-11-20T11:41:07;0.60;1.00
12438;DHT22;6283;51.330;12.374;2022-11-20T11:43:36;0.60;1.00
12438;DHT22;6283;51.330;12.374;2022-11-20T11:54:01;0.80;1.00
12438;DHT22;6283;51.330;12.374;2022-11-20T11:56:29;0.80;1.00
12438;DHT22;6283;51.330;12.374;2022-11-20T11:58:57;1.00;1.00
12438;DHT22;6283;51.330;12.374;2022-11-20T12:06:39;1.50;1.00
12438;DHT22;6283;51.330;12.374;2022-11-20T12:09:11;1.70;1.00
12438;DHT22;6283;51.330;12.374;2022-11-20T12:14:32;2.20;1.00
12438;DHT22;6283;51.330;12.374;2022-11-20T12:17:00;2.60;1.00
12438;DHT22;6283;51.330;12.374;2022-11-20T12:19:31;3.10;1.00
12438;DHT22;6283;51.330;12.374;2022-11-20T12:28:09;3.50;1.00
12438;DHT22;6283;51.330;12.374;2022-11-20T12:30:27;3.50;1.00
12438;DHT22;6283;51.330;12.374;2022-11-20T12:33:06;3.50;1.00
12438;DHT22;6283;51.330;12.374;2022-11-20T13:01:53;4.10;1.00
12438;DHT22;6283;51.330;12.374;2022-11-20T13:06:46;3.90;1.00
12438;DHT22;6283;51.330;12.374;2022-11-20T13:09:15;4.00;1.00
12438;DHT22;6283;51.330;12.374;2022-11-20T13:14:30;4.00;1.00
12438;DHT22;6283;51.330;12.374;2022-11-20T13:19:53;4.20;1.00
12438;DHT22;6283;51.330;12.374;2022-11-20T13:22:48;4.30;1.00
12438;DHT22;6283;51.330;12.374;2022-11-20T13:25:33;4.30;1.00
12438;DHT22;6283;51.330;12.374;2022-11-20T13:30:55;4.90;1.00
12438;DHT22;6283;51.330;12.374;2022-11-20T13:33:30;4.90;1.00
12438;DHT22;6283;51.330;12.374;2022-11-20T13:36:06;5.00;1.00
12438;DHT22;6283;51.330;12.374;2022-11-20T13:38:48;5.00;1.00
12438;DHT22;6283;51.330;12.374;2022-11-20T13:46:45;5.90;1.00
12438;DHT22;6283;51.330;12.374;2022-11-20T13:49:32;5.80;1.00
12438;DHT22;6283;51.330;12.374;2022-11-20T14:00:15;5.70;1.00
12438;DHT22;6283;51.330;12.374;2022-11-20T14:02:42;5.90;1.00
12438;DHT22;6283;51.330;12.374;2022-11-20T14:05:21;5.70;1.00
12438;DHT22;6283;51.330;12.374;2022-11-20T14:07:48;5.70;1.00
12438;DHT22;6283;51.330;12.374;2022-11-20T14:10:26;5.60;1.00
12438;DHT22;6283;51.330;12.374;2022-11-20T14:12:52;5.30;1.00
12438;DHT22;6283;51.330;12.374;2022-11-20T14:15:33;5.40;1.00
12438;DHT22;6283;51.330;12.374;2022-11-20T14:17:59;5.30;1.00
12438;DHT22;6283;51.330;12.374;2022-11-20T14:20:38;5.30;1.00
12438;DHT22;6283;51.330;12.374;2022-11-20T14:23:04;5.10;1.00
12438;DHT22;6283;51.330;12.374;2022-11-20T14:25:30;4.90;1.00
12438;DHT22;6283;51.330;12.374;2022-11-20T14:28:00;4.80;1.00
12438;DHT22;6283;51.330;12.374;2022-11-20T14:30:44;4.80;1.00
12438;DHT22;6283;51.330;12.374;2022-11-20T14:33:11;4.90;1.00
12438;DHT22;6283;51.330;12.374;2022-11-20T14:35:44;4.80;1.00
12438;DHT22;6283;51.330;12.374;2022-11-20T14:38:13;4.90;1.00
12438;DHT22;6283;51.330;12.374;2022-11-20T14:40:39;4.90;1.00
12438;DHT22;6283;51.330;12.374;2022-11-20T14:43:26;4.90;1.00
12438;DHT22;6283;51.330;12.374;2022-11-20T14:46:10;4.50;1.00
12438;DHT22;6283;51.330;12.374;2022-11-20T14:48:43;4.60;1.00
12438;DHT22;6283;51.330;12.374;2022-11-20T14:51:12;4.30;1.00
12438;DHT22;6283;51.330;12.374;2022-11-20T14:53:48;4.20;1.00
12438;DHT22;6283;51.330;12.374;2022-11-20T14:56:22;3.70;1.00
12438;DHT22;6283;51.330;12.374;2022-11-20T14:58:56;3.70;1.00
12438;DHT22;6283;51.330;12.374;2022-11-20T15:01:30;3.10;1.00
12438;DHT22;6283;51.330;12.374;2022-11-20T15:04:14;2.90;1.00
12438;DHT22;6283;51.330;12.374;2022-11-20T15:06:50;2.50;1.00
12438;DHT22;6283;51.330;12.374;2022-11-20T15:09:16;2.10;1.00
12438;DHT22;6283;51.330;12.374;2022-11-20T15:11:55;2.00;1.00
12438;DHT22;6283;51.330;12.374;2022-11-20T15:14:22;1.70;1.00
12438;DHT22;6283;51.330;12.374;2022-11-20T15:16:48;1.70;1.00
12438;DHT22;6283;51.330;12.374;2022-11-20T15:19:20;1.60;1.00
12438;DHT22;6283;51.330;12.374;2022-11-20T15:21:46;1.50;1.00
12438;DHT22;6283;51.330;12.374;2022-11-20T15:24:12;1.30;1.00
12438;DHT22;6283;51.330;12.374;2022-11-20T15:26:38;1.40;1.00
12438;DHT22;6283;51.330;12.374;2022-11-20T15:29:07;1.30;1.00
12438;DHT22;6283;51.330;12.374;2022-11-20T15:31:33;1.10;1.00
12438;DHT22;6283;51.330;12.374;2022-11-20T15:34:00;1.00;1.00
12438;DHT22;6283;51.330;12.374;2022-11-20T15:36:25;0.90;1.00
12438;DHT22;6283;51.330;12.374;2022-11-20T15:38:51;0.80;1.00
12438;DHT22;6283;51.330;12.374;2022-11-20T15:41:16;0.90;1.00
12438;DHT22;6283;51.330;12.374;2022-11-20T15:43:42;1.10;1.00
12438;DHT22;6283;51.330;12.374;2022-11-20T15:46:16;0.90;1.00
12438;DHT22;6283;51.330;12.374;2022-11-20T15:48:53;0.90;1.00
12438;DHT22;6283;51.330;12.374;2022-11-20T15:51:41;1.00;1.00
12438;DHT22;6283;51.330;12.374;2022-11-20T15:54:21;0.80;1.00
12438;DHT22;6283;51.330;12.374;2022-11-20T15:56:48;1.10;1.00
12438;DHT22;6283;51.330;12.374;2022-11-20T15:59:14;0.90;1.00
12438;DHT22;6283;51.330;12.374;2022-11-20T16:01:41;0.80;1.00
12438;DHT22;6283;51.330;12.374;2022-11-20T16:04:11;1.00;1.00
12438;DHT22;6283;51.330;12.374;2022-11-20T16:06:37;1.00;1.00
12438;DHT22;6283;51.330;12.374;2022-11-20T16:09:03;1.00;1.00
12438;DHT22;6283;51.330;12.374;2022-11-20T16:11:29;0.90;1.00
12438;DHT22;6283;51.330;12.374;2022-11-20T16:13:54;1.30;1.00
12438;DHT22;6283;51.330;12.374;2022-11-20T16:16:39;0.90;1.00
12438;DHT22;6283;51.330;12.374;2022-11-20T16:19:10;1.00;1.00
12438;DHT22;6283;51.330;12.374;2022-11-20T16:21:36;0.80;1.00
12438;DHT22;6283;51.330;12.374;2022-11-20T16:24:06;0.90;1.00
12438;DHT22;6283;51.330;12.374;2022-11-20T16:26:32;0.80;1.00
12438;DHT22;6283;51.330;12.374;2022-11-20T16:28:59;0.80;1.00
12438;DHT22;6283;51.330;12.374;2022-11-20T16:31:25;0.80;1.00
12438;DHT22;6283;51.330;12.374;2022-11-20T16:33:52;0.80;1.00
12438;DHT22;6283;51.330;12.374;2022-11-20T16:36:19;0.70;1.00
12438;DHT22;6283;51.330;12.374;2022-11-20T16:38:46;0.60;1.00
12438;DHT22;6283;51.330;12.374;2022-11-20T16:41:12;0.70;1.00
12438;DHT22;6283;51.330;12.374;2022-11-20T16:43:51;0.60;1.00
12438;DHT22;6283;51.330;12.374;2022-11-20T16:46:21;0.60;1.00
12438;DHT22;6283;51.330;12.374;2022-11-20T16:49:02;0.60;1.00
12438;DHT22;6283;51.330;12.374;2022-11-20T16:51:30;0.70;1.00
12438;DHT22;6283;51.330;12.374;2022-11-20T16:53:56;0.70;1.00
12438;DHT22;6283;51.330;12.374;2022-11-20T16:56:26;0.70;1.00
12438;DHT22;6283;51.330;12.374;2022-11-20T16:58:54;0.70;1.00
12438;DHT22;6283;51.330;12.374;2022-11-20T17:01:22;0.60;1.00
12438;DHT22;6283;51.330;12.374;2022-11-20T17:06:27;0.90;1.00
12438;DHT22;6283;51.330;12.374;2022-11-20T17:08:54;0.60;1.00
12438;DHT22;6283;51.330;12.374;2022-11-20T17:11:20;0.60;1.00
12438;DHT22;6283;51.330;12.374;2022-11-20T17:13:46;0.60;1.00
12438;DHT22;6283;51.330;12.374;2022-11-20T17:16:15;0.70;1.00
12438;DHT22;6283;51.330;12.374;2022-11-20T17:18:41;0.80;1.00
12438;DHT22;6283;51.330;12.374;2022-11-20T17:21:08;0.60;1.00
12438;DHT22;6283;51.330;12.374;2022-11-20T17:23:41;0.70;1.00
12438;DHT22;6283;51.330;12.374;2022-11-20T17:26:19;0.50;1.00
12438;DHT22;6283;51.330;12.374;2022-11-20T17:28:51;0.80;1.00
12438;DHT22;6283;51.330;12.374;2022-11-20T17:31:17;0.60;1.00
12438;DHT22;6283;51.330;12.374;2022-11-20T17:33:44;0.70;1.00
12438;DHT22;6283;51.330;12.374;2022-11-20T17:36:12;0.70;1.00
12438;DHT22;6283;51.330;12.374;2022-11-20T17:38:38;0.70;1.00
12438;DHT22;6283;51.330;12.374;2022-11-20T17:43:31;0.60;1.00
12438;DHT22;6283;51.330;12.374;2022-11-20T17:45:57;0.70;1.00
12438;DHT22;6283;51.330;12.374;2022-11-20T17:48:23;0.70;1.00
12438;DHT22;6283;51.330;12.374;2022-11-20T17:50:49;0.40;1.00
12438;DHT22;6283;51.330;12.374;2022-11-20T17:53:16;0.70;1.00
12438;DHT22;6283;51.330;12.374;2022-11-20T17:55:41;0.60;1.00